createdAt,value
2022-10-21T00:01:29.491Z,96128.91
2022-10-21T00:03:57.440Z,96123.63
2022-10-21T00:06:25.305Z,96113.44
2022-10-21T00:08:54.759Z,96101.47
2022-10-21T00:11:22.742Z,96101.47
2022-10-21T00:13:50.613Z,96100.81
2022-10-21T00:16:20.036Z,96088.56
2022-10-21T00:18:49.131Z,96082.59
2022-10-21T00:21:23.126Z,96093.13
2022-10-21T00:23:51.245Z,96092.47
2022-10-21T00:26:21.046Z,96085.94
2022-10-21T00:28:49.172Z,96086.59
2022-10-21T00:31:17.592Z,96087.56
2022-10-21T00:33:45.453Z,96093.28
2022-10-21T00:36:15.797Z,96081.69
2022-10-21T00:38:44.889Z,96093.47
2022-10-21T00:41:13.667Z,96104.47
2022-10-21T00:44:00.912Z,96103.63
2022-10-21T00:46:41.712Z,96104.47
2022-10-21T00:49:16.906Z,96108.91
2022-10-21T00:51:48.205Z,96099.38
2022-10-21T00:54:17.515Z,96088.56
2022-10-21T00:56:47.840Z,96080.16
2022-10-21T00:59:17.857Z,96109.72
2022-10-21T01:01:45.878Z,96109.53
2022-10-21T01:04:13.894Z,96120.69
2022-10-21T01:06:42.555Z,96137.75
2022-10-21T01:09:10.709Z,96148.94
2022-10-21T01:11:45.345Z,96156.84
2022-10-21T01:14:37.192Z,96164.38
2022-10-21T01:17:26.526Z,96154.56
2022-10-21T01:20:20.686Z,96164.38
2022-10-21T01:23:24.498Z,96167.84
2022-10-21T01:26:10.020Z,96167.00
2022-10-21T01:28:50.963Z,96167.38
2022-10-21T01:31:28.837Z,96180.81
2022-10-21T01:34:03.020Z,96177.19
2022-10-21T01:36:40.452Z,96179.63
2022-10-21T01:39:19.806Z,96179.38
2022-10-21T01:41:53.101Z,96190.97
2022-10-21T01:44:27.668Z,96194.25
2022-10-21T01:47:00.369Z,96200.50
2022-10-21T01:49:33.394Z,96203.59
2022-10-21T01:52:03.683Z,96204.97
2022-10-21T01:54:35.484Z,96249.53
2022-10-21T01:57:05.764Z,96241.28
2022-10-21T01:59:35.045Z,96260.91
2022-10-21T02:02:07.707Z,96264.19
2022-10-21T02:04:37.816Z,96271.59
2022-10-21T02:07:06.301Z,96305.25
2022-10-21T02:09:34.260Z,96299.97
2022-10-21T02:12:04.279Z,96296.72
2022-10-21T02:14:37.587Z,96312.16
2022-10-21T02:17:09.133Z,96347.31
2022-10-21T02:19:37.402Z,96333.22
2022-10-21T02:22:09.535Z,96393.97
2022-10-21T02:24:43.826Z,96383.75
2022-10-21T02:27:12.312Z,96370.94
2022-10-21T02:29:43.444Z,96361.75
2022-10-21T02:32:23.627Z,96354.22
2022-10-21T02:35:03.918Z,96354.84
2022-10-21T02:40:16.930Z,96357.66
2022-10-21T02:42:48.144Z,96382.13
2022-10-21T02:45:17.850Z,96380.47
2022-10-21T02:47:50.575Z,96393.19
2022-10-21T02:50:18.514Z,96394.28
2022-10-21T02:52:46.462Z,96402.88
2022-10-21T02:55:14.588Z,96398.94
2022-10-21T02:57:42.658Z,96419.97
2022-10-21T03:00:11.947Z,96440.31
2022-10-21T03:02:42.079Z,96457.59
2022-10-21T03:05:13.119Z,96475.69
2022-10-21T03:07:41.466Z,96467.97
2022-10-21T03:10:10.208Z,96474.88
2022-10-21T03:12:38.318Z,96476.50
2022-10-21T03:15:06.977Z,96452.69
2022-10-21T03:17:34.937Z,96429.22
2022-10-21T03:20:02.993Z,96469.13
2022-10-21T03:22:32.237Z,96490.31
2022-10-21T03:25:00.091Z,96532.09
2022-10-21T03:27:28.537Z,96521.56
2022-10-21T03:29:56.854Z,96553.13
2022-10-21T03:32:24.683Z,96562.38
2022-10-21T03:34:52.759Z,96568.94
2022-10-21T03:37:20.570Z,96568.94
2022-10-21T03:39:49.767Z,96551.84
2022-10-21T03:42:17.796Z,96574.56
2022-10-21T03:44:45.574Z,96587.72
2022-10-21T03:47:13.570Z,96586.88
2022-10-21T03:49:41.605Z,96602.34
2022-10-21T03:52:09.576Z,96599.72
2022-10-21T03:54:37.383Z,96643.31
2022-10-21T03:57:06.814Z,96634.75
2022-10-21T03:59:34.877Z,96661.44
2022-10-21T04:02:02.952Z,96661.28
2022-10-21T04:04:31.171Z,96652.91
2022-10-21T04:06:59.287Z,96649.94
2022-10-21T04:09:27.654Z,96631.84
2022-10-21T04:11:55.625Z,96636.09
2022-10-21T04:14:24.900Z,96618.66
2022-10-21T04:17:02.116Z,96612.09
2022-10-21T04:19:33.504Z,96586.28
2022-10-21T04:22:01.540Z,96624.75
2022-10-21T04:24:29.614Z,96666.22
2022-10-21T04:26:57.692Z,96656.19
2022-10-21T04:29:27.012Z,96630.09
2022-10-21T04:34:23.911Z,96541.03
2022-10-21T04:36:52.085Z,96508.78
2022-10-21T04:39:20.139Z,96454.03
2022-10-21T04:41:50.009Z,96420.38
2022-10-21T04:44:18.067Z,96383.91
2022-10-21T04:46:47.446Z,96338.56
2022-10-21T04:49:15.316Z,96309.84
2022-10-21T04:51:43.565Z,96277.31
2022-10-21T04:54:13.519Z,96243.34
2022-10-21T04:56:41.489Z,96238.72
2022-10-21T04:59:09.707Z,96210.19
2022-10-21T05:01:37.607Z,96209.66
2022-10-21T05:04:07.613Z,96195.47
2022-10-21T05:06:35.494Z,96179.25
2022-10-21T05:09:03.494Z,96182.78
2022-10-21T05:11:33.273Z,96184.59
2022-10-21T05:14:01.246Z,96168.72
2022-10-21T05:16:29.292Z,96177.44
2022-10-21T05:18:57.426Z,96199.84
2022-10-21T05:21:26.746Z,96203.28
2022-10-21T05:23:54.668Z,96185.41
2022-10-21T05:26:24.261Z,96159.00
2022-10-21T05:28:52.197Z,96136.03
2022-10-21T05:31:20.137Z,96128.84
2022-10-21T05:33:48.145Z,96141.84
2022-10-21T05:36:17.569Z,96122.94
2022-10-21T05:38:48.704Z,96119.16
2022-10-21T05:41:17.204Z,96097.81
2022-10-21T05:43:45.296Z,96072.59
2022-10-21T05:46:13.919Z,96095.19
2022-10-21T05:48:41.887Z,96103.88
2022-10-21T05:51:09.778Z,96087.84
2022-10-21T05:53:40.009Z,96088.47
2022-10-21T05:56:10.093Z,96103.25
2022-10-21T05:58:38.203Z,96078.13
2022-10-21T06:01:06.355Z,96082.94
2022-10-21T06:03:35.078Z,96135.41
2022-10-21T06:06:04.756Z,96147.19
2022-10-21T06:08:33.871Z,96111.41
2022-10-21T06:11:02.797Z,96098.19
2022-10-21T06:13:32.747Z,96104.06
2022-10-21T06:16:00.927Z,96094.09
2022-10-21T06:18:29.083Z,96086.03
2022-10-21T06:20:57.310Z,96055.72
2022-10-21T06:23:26.434Z,96037.03
2022-10-21T06:25:58.840Z,96016.38
2022-10-21T06:28:28.811Z,96004.38
2022-10-21T06:30:58.224Z,96002.56
2022-10-21T06:33:27.473Z,96004.91
2022-10-21T06:35:55.725Z,96014.75
2022-10-21T06:38:24.116Z,96018.34
2022-10-21T06:40:52.037Z,96015.06
2022-10-21T06:45:48.470Z,96052.09
2022-10-21T06:48:19.345Z,96058.19
2022-10-21T06:50:47.288Z,96075.03
2022-10-21T06:53:15.342Z,96096.19
2022-10-21T06:55:43.193Z,96123.59
2022-10-21T06:58:11.016Z,96156.91
2022-10-21T07:00:39.262Z,96180.69
2022-10-21T07:03:07.205Z,96210.56
2022-10-21T07:05:36.421Z,96233.53
2022-10-21T07:08:04.403Z,96280.31
2022-10-21T07:10:32.400Z,96298.75
2022-10-21T07:13:00.222Z,96366.56
2022-10-21T07:15:28.340Z,96440.81
2022-10-21T07:18:01.119Z,96514.13
2022-10-21T07:20:29.029Z,96642.91
2022-10-21T07:22:58.465Z,96788.59
2022-10-21T07:25:28.221Z,96985.66
2022-10-21T07:27:56.290Z,97193.19
2022-10-21T07:30:24.935Z,97385.94
2022-10-21T07:32:53.033Z,97555.06
2022-10-21T07:35:20.939Z,97716.59
2022-10-21T07:37:48.862Z,97873.97
2022-10-21T07:40:18.592Z,98052.03
2022-10-21T07:42:46.459Z,98079.75
2022-10-21T07:45:14.624Z,98029.81
2022-10-21T07:47:42.547Z,98148.94
2022-10-21T07:50:11.028Z,98196.41
2022-10-21T07:52:51.898Z,98266.16
2022-10-21T07:55:33.212Z,98421.53
2022-10-21T07:58:01.547Z,98582.47
2022-10-21T08:00:29.757Z,98756.63
2022-10-21T08:02:58.318Z,98910.44
2022-10-21T08:05:26.368Z,99120.97
2022-10-21T08:07:54.825Z,99314.50
2022-10-21T08:10:22.966Z,99393.53
2022-10-21T08:12:52.279Z,99369.97
2022-10-21T08:15:20.278Z,99576.69
2022-10-21T08:17:48.172Z,99723.78
2022-10-21T08:20:16.076Z,99959.03
2022-10-21T08:22:44.068Z,100195.28
2022-10-21T08:25:16.685Z,100264.16
2022-10-21T08:27:44.743Z,100427.75
2022-10-21T08:30:15.720Z,100438.31
2022-10-21T08:32:43.577Z,100561.84
2022-10-21T08:35:11.443Z,100650.22
2022-10-21T08:37:39.921Z,100630.91
2022-10-21T08:40:10.950Z,100527.59
2022-10-21T08:42:42.673Z,100594.84
2022-10-21T08:45:19.479Z,100715.69
2022-10-21T08:47:52.452Z,100866.25
2022-10-21T08:50:23.471Z,101095.06
2022-10-21T08:52:57.432Z,101326.09
2022-10-21T08:55:37.868Z,101359.50
2022-10-21T08:58:06.538Z,101148.00
2022-10-21T09:00:45.621Z,101452.47
2022-10-21T09:03:26.270Z,101428.81
2022-10-21T09:06:02.938Z,101386.22
2022-10-21T09:08:37.448Z,101196.09
2022-10-21T09:11:14.648Z,100861.88
2022-10-21T09:13:55.925Z,100939.75
2022-10-21T09:16:37.684Z,100918.00
2022-10-21T09:19:19.927Z,100960.25
2022-10-21T09:22:16.362Z,101143.47
2022-10-21T09:24:53.718Z,100944.16
2022-10-21T09:27:31.949Z,101095.91
2022-10-21T09:30:03.557Z,101283.47
2022-10-21T09:32:39.197Z,101311.94
2022-10-21T09:35:17.447Z,101470.91
2022-10-21T09:37:49.661Z,101606.22
2022-10-21T09:40:19.871Z,102023.94
2022-10-21T09:42:53.228Z,101929.66
2022-10-21T09:45:33.513Z,101882.16
2022-10-21T09:48:05.739Z,101713.66
2022-10-21T09:50:35.719Z,101410.53
2022-10-21T09:53:09.337Z,101262.09
2022-10-21T09:55:40.476Z,100913.19
2022-10-21T09:58:08.554Z,100607.00
2022-10-21T10:00:48.392Z,100479.19
2022-10-21T10:03:36.691Z,100317.41
2022-10-21T10:06:06.748Z,100255.44
2022-10-21T10:08:38.613Z,100372.66
2022-10-21T10:11:14.918Z,100323.72
2022-10-21T10:13:45.553Z,100307.81
2022-10-21T10:16:23.424Z,100290.22
2022-10-21T10:18:54.983Z,100206.00
2022-10-21T10:21:23.553Z,100279.63
2022-10-21T10:23:54.025Z,100192.31
2022-10-21T10:26:30.074Z,100280.47
2022-10-21T10:29:00.409Z,100097.19
2022-10-21T10:31:32.816Z,99976.75
2022-10-21T10:34:05.115Z,100082.25
2022-10-21T10:36:40.234Z,100217.66
2022-10-21T10:39:13.018Z,100298.78
2022-10-21T10:41:51.502Z,100441.97
2022-10-21T10:44:28.463Z,100694.41
2022-10-21T10:46:58.553Z,101061.00
2022-10-21T10:49:29.016Z,101260.69
2022-10-21T10:52:17.150Z,101531.22
2022-10-21T10:54:45.097Z,102126.00
2022-10-21T10:57:16.884Z,102351.81
2022-10-21T10:59:48.415Z,102317.59
2022-10-21T11:02:35.250Z,102355.50
2022-10-21T11:05:23.631Z,101901.22
2022-10-21T11:07:54.021Z,101963.66
2022-10-21T11:10:32.894Z,101819.22
2022-10-21T11:13:01.734Z,101785.00
2022-10-21T11:15:42.519Z,101634.25
2022-10-21T11:18:26.838Z,101437.63
2022-10-21T11:21:09.093Z,101447.75
2022-10-21T11:23:56.890Z,101359.59
2022-10-21T11:26:37.004Z,101277.44
2022-10-21T11:29:14.911Z,101137.84
2022-10-21T11:32:10.256Z,101131.34
2022-10-21T11:34:51.255Z,100758.09
2022-10-21T11:37:29.929Z,100618.19
2022-10-21T11:40:04.727Z,100613.38
2022-10-21T11:42:40.737Z,100637.78
2022-10-21T11:45:30.102Z,100679.03
2022-10-21T11:48:07.264Z,100366.69
2022-10-21T11:50:41.482Z,100301.31
2022-10-21T11:53:28.382Z,100510.78
2022-10-21T11:56:09.783Z,100546.34
2022-10-21T11:58:48.217Z,100206.09
2022-10-21T12:01:30.138Z,100013.41
2022-10-21T12:04:17.450Z,99800.13
2022-10-21T12:06:54.293Z,99824.03
2022-10-21T12:09:27.870Z,99967.13
2022-10-21T12:12:01.641Z,99821.81
2022-10-21T12:14:33.856Z,99819.81
2022-10-21T12:17:06.918Z,99743.09
2022-10-21T12:19:36.521Z,99692.53
2022-10-21T12:22:05.474Z,99622.91
2022-10-21T12:24:45.035Z,99655.19
2022-10-21T12:27:21.747Z,99649.84
2022-10-21T12:30:00.746Z,99520.63
2022-10-21T12:32:33.975Z,99503.63
2022-10-21T12:35:02.913Z,99470.78
2022-10-21T12:38:05.822Z,99449.91
2022-10-21T12:40:41.615Z,99371.97
2022-10-21T12:43:23.723Z,99421.97
2022-10-21T12:46:05.981Z,99391.38
2022-10-21T12:48:37.649Z,99325.56
2022-10-21T12:51:09.881Z,99140.81
2022-10-21T12:53:41.322Z,99021.31
2022-10-21T12:56:12.373Z,98999.34
2022-10-21T12:58:43.869Z,98953.91
2022-10-21T13:01:42.329Z,98951.66
2022-10-21T13:04:47.430Z,98873.75
2022-10-21T13:07:37.217Z,98756.94
2022-10-21T13:10:27.710Z,98713.78
2022-10-21T13:13:32.471Z,98650.03
2022-10-21T13:16:03.104Z,98653.66
2022-10-21T13:18:53.932Z,98637.38
2022-10-21T13:21:42.332Z,98601.44
2022-10-21T13:24:20.521Z,98603.94
2022-10-21T13:26:51.727Z,98611.44
2022-10-21T13:29:51.657Z,98609.75
2022-10-21T13:32:28.475Z,98567.31
2022-10-21T13:35:26.405Z,98553.50
2022-10-21T13:37:58.228Z,98557.84
2022-10-21T13:40:33.020Z,98516.56
2022-10-21T13:43:03.983Z,98474.31
2022-10-21T13:45:37.359Z,98484.50
2022-10-21T13:48:08.383Z,98441.06
2022-10-21T13:50:42.144Z,98387.22
2022-10-21T13:53:38.162Z,98359.31
2022-10-21T13:56:08.647Z,98318.41
2022-10-21T13:58:39.675Z,98279.19
2022-10-21T14:01:14.925Z,98272.91
2022-10-21T14:03:44.129Z,98234.97
2022-10-21T14:06:17.404Z,98230.66
2022-10-21T14:08:47.938Z,98216.88
2022-10-21T14:11:21.143Z,98160.22
2022-10-21T14:13:52.543Z,98153.47
2022-10-21T14:16:29.026Z,98156.97
2022-10-21T14:18:57.370Z,98165.09
2022-10-21T14:21:28.868Z,98145.66
2022-10-21T14:23:57.803Z,98123.44
2022-10-21T14:26:31.003Z,98097.19
2022-10-21T14:29:00.693Z,98059.03
2022-10-21T14:31:31.693Z,98039.47
2022-10-21T14:33:59.673Z,98012.44
2022-10-21T14:36:28.724Z,97950.53
2022-10-21T14:39:00.670Z,97935.31
2022-10-21T14:41:33.524Z,97887.56
2022-10-21T14:44:08.634Z,97881.59
2022-10-21T14:46:47.122Z,97835.03
2022-10-21T14:49:24.452Z,97793.78
2022-10-21T14:51:58.669Z,97741.25
2022-10-21T14:54:31.481Z,97696.56
2022-10-21T14:57:01.402Z,97615.31
2022-10-21T14:59:37.543Z,97599.25
2022-10-21T15:02:22.374Z,97557.06
2022-10-21T15:04:52.837Z,97534.22
2022-10-21T15:07:29.923Z,97479.97
2022-10-21T15:10:00.633Z,97450.19
2022-10-21T15:12:33.176Z,97405.69
2022-10-21T15:15:03.185Z,97383.06
2022-10-21T15:17:32.674Z,97353.97
2022-10-21T15:20:02.477Z,97313.03
2022-10-21T15:22:34.125Z,97274.03
2022-10-21T15:25:08.280Z,97237.41
2022-10-21T15:27:42.687Z,97216.91
2022-10-21T15:30:17.334Z,97177.13
2022-10-21T15:32:46.770Z,97172.47
2022-10-21T15:35:16.643Z,97144.91
2022-10-21T15:37:45.017Z,97117.53
2022-10-21T15:40:12.994Z,97086.69
2022-10-21T15:42:41.201Z,97062.09
2022-10-21T15:45:15.621Z,97013.75
2022-10-21T15:47:43.729Z,96994.16
2022-10-21T15:50:16.712Z,96973.84
2022-10-21T15:52:44.950Z,96932.81
2022-10-21T15:55:12.966Z,96943.03
2022-10-21T15:57:42.143Z,96918.16
2022-10-21T16:00:18.824Z,96888.34
2022-10-21T16:02:47.364Z,96877.94
2022-10-21T16:05:17.422Z,96858.19
2022-10-21T16:07:46.013Z,96839.56
2022-10-21T16:10:20.381Z,96815.50
2022-10-21T16:12:48.930Z,96796.09
2022-10-21T16:15:17.530Z,96733.44
2022-10-21T16:17:48.390Z,96702.00
2022-10-21T16:20:20.698Z,96716.72
2022-10-21T16:22:49.001Z,96697.78
2022-10-21T16:25:17.239Z,96684.78
2022-10-21T16:27:55.586Z,96641.75
2022-10-21T16:33:18.238Z,96615.38
2022-10-21T16:35:48.955Z,96599.53
2022-10-21T16:38:21.674Z,96588.72
2022-10-21T16:40:49.808Z,96510.56
2022-10-21T16:43:17.945Z,96542.28
2022-10-21T16:45:47.274Z,96507.41
2022-10-21T16:48:15.342Z,96418.16
2022-10-21T16:50:50.591Z,96403.28
2022-10-21T16:53:19.215Z,96379.28
2022-10-21T16:55:49.460Z,96370.47
2022-10-21T16:58:17.853Z,96373.38
2022-10-21T17:00:46.822Z,96356.47
2022-10-21T17:03:15.274Z,96379.56
2022-10-21T17:05:43.298Z,96360.50
2022-10-21T17:08:12.698Z,96345.41
2022-10-21T17:10:40.830Z,96324.41
2022-10-21T17:13:09.958Z,96291.69
2022-10-21T17:15:37.868Z,96250.00
2022-10-21T17:18:06.038Z,96190.94
2022-10-21T17:20:34.949Z,96158.09
2022-10-21T17:23:03.885Z,96114.00
2022-10-21T17:25:33.328Z,96078.22
2022-10-21T17:28:01.314Z,96025.97
2022-10-21T17:30:29.604Z,95983.50
2022-10-21T17:32:57.507Z,95940.38
2022-10-21T17:35:25.584Z,95904.84
2022-10-21T17:37:54.779Z,95878.19
2022-10-21T17:40:25.345Z,95858.16
2022-10-21T17:42:54.810Z,95832.53
2022-10-21T17:45:23.671Z,95839.47
2022-10-21T17:47:52.971Z,95850.25
2022-10-21T17:50:23.775Z,95825.09
2022-10-21T17:52:52.327Z,95862.22
2022-10-21T17:55:21.123Z,95839.94
2022-10-21T17:57:49.213Z,95789.94
2022-10-21T18:00:18.810Z,95790.22
2022-10-21T18:02:46.893Z,95728.84
2022-10-21T18:05:15.034Z,95683.38
2022-10-21T18:07:42.918Z,95657.03
2022-10-21T18:10:11.335Z,95598.97
2022-10-21T18:12:39.667Z,95547.94
2022-10-21T18:15:10.021Z,95544.22
2022-10-21T18:17:42.128Z,95550.72
2022-10-21T18:20:12.310Z,95495.69
2022-10-21T18:22:40.520Z,95516.06
2022-10-21T18:25:11.213Z,95492.38
2022-10-21T18:27:40.448Z,95448.72
2022-10-21T18:30:12.218Z,95442.41
2022-10-21T18:32:48.898Z,95398.78
2022-10-21T18:35:22.292Z,95396.34
2022-10-21T18:37:53.466Z,95451.09
2022-10-21T18:40:21.434Z,95480.00
2022-10-21T18:42:51.096Z,95546.03
2022-10-21T18:45:19.773Z,95590.34
2022-10-21T18:47:51.390Z,95644.00
2022-10-21T18:50:19.608Z,95699.19
2022-10-21T18:52:48.234Z,95733.22
2022-10-21T18:55:16.531Z,95748.63
2022-10-21T18:57:44.611Z,95763.75
2022-10-21T19:00:13.176Z,95790.22
2022-10-21T19:02:41.158Z,95804.97
2022-10-21T19:05:10.784Z,95819.19
2022-10-21T19:07:39.052Z,95835.03
2022-10-21T19:10:08.589Z,95848.81
2022-10-21T19:12:36.591Z,95835.41
2022-10-21T19:15:07.590Z,95838.66
2022-10-21T19:17:35.474Z,95883.91
2022-10-21T19:20:04.016Z,95897.50
2022-10-21T19:22:33.400Z,95898.69
2022-10-21T19:25:01.245Z,95936.47
2022-10-21T19:27:29.082Z,95950.97
2022-10-21T19:29:57.647Z,95978.63
2022-10-21T19:32:25.493Z,96006.31
2022-10-21T19:34:53.626Z,96034.06
2022-10-21T19:37:21.742Z,96070.88
2022-10-21T19:39:53.886Z,96073.31
2022-10-21T19:42:21.826Z,96092.38
2022-10-21T19:44:49.714Z,96104.19
2022-10-21T19:47:17.667Z,96101.25
2022-10-21T19:49:45.709Z,96133.88
2022-10-21T19:52:13.830Z,96150.09
2022-10-21T19:54:41.858Z,96161.09
2022-10-21T19:57:11.131Z,96160.00
2022-10-21T19:59:39.049Z,96159.47
2022-10-21T20:02:07.324Z,96157.91
2022-10-21T20:04:36.142Z,96157.38
2022-10-21T20:07:04.189Z,96152.09
2022-10-21T20:09:35.028Z,96128.78
2022-10-21T20:12:06.012Z,96104.53
2022-10-21T20:14:35.495Z,96083.84
2022-10-21T20:17:03.459Z,96036.94
2022-10-21T20:19:31.353Z,96006.66
2022-10-21T20:21:59.558Z,95962.41
2022-10-21T20:24:27.415Z,95925.22
2022-10-21T20:26:58.406Z,95892.13
2022-10-21T20:29:32.103Z,95830.88
2022-10-21T20:32:01.440Z,95803.72
2022-10-21T20:34:31.691Z,95752.34
2022-10-21T20:37:02.401Z,95733.16
2022-10-21T20:39:30.275Z,95705.63
2022-10-21T20:41:58.305Z,95691.44
2022-10-21T20:44:26.313Z,95667.72
2022-10-21T20:46:54.359Z,95666.25
2022-10-21T20:49:23.818Z,95699.94
2022-10-21T20:51:51.776Z,95733.97
2022-10-21T20:54:22.827Z,95742.47
2022-10-21T20:56:50.829Z,95768.66
2022-10-21T20:59:18.898Z,95794.56
2022-10-21T21:01:48.430Z,95838.41
2022-10-21T21:04:20.696Z,95855.00
2022-10-21T21:06:51.458Z,95888.50
2022-10-21T21:12:09.100Z,95914.44
2022-10-21T21:14:37.039Z,95869.88
2022-10-21T21:17:05.205Z,95876.47
2022-10-21T21:19:33.316Z,95804.91
2022-10-21T21:22:04.131Z,95731.47
2022-10-21T21:24:32.342Z,95661.84
2022-10-21T21:27:02.329Z,95640.75
2022-10-21T21:29:30.430Z,95570.66
2022-10-21T21:31:58.355Z,95530.41
2022-10-21T21:34:26.323Z,95543.50
2022-10-21T21:36:54.353Z,95476.59
2022-10-21T21:39:23.843Z,95480.75
2022-10-21T21:41:51.818Z,95418.69
2022-10-21T21:44:19.869Z,95415.56
2022-10-21T21:46:49.205Z,95388.47
2022-10-21T21:49:17.206Z,95369.06
2022-10-21T21:51:45.104Z,95376.09
2022-10-21T21:54:13.114Z,95379.97
2022-10-21T21:56:42.429Z,95301.53
2022-10-21T21:59:10.462Z,95327.38
2022-10-21T22:01:38.566Z,95299.50
2022-10-21T22:04:06.621Z,95262.69
2022-10-21T22:06:38.517Z,95236.00
2022-10-21T22:09:11.717Z,95229.13
2022-10-21T22:11:40.331Z,95229.91
2022-10-21T22:14:09.663Z,95307.16
2022-10-21T22:16:37.714Z,95346.38
2022-10-21T22:19:05.611Z,95413.94
2022-10-21T22:21:33.629Z,95367.72
2022-10-21T22:24:01.655Z,95405.38
2022-10-21T22:26:29.984Z,95366.09
2022-10-21T22:28:58.248Z,95429.13
2022-10-21T22:31:30.422Z,95444.50
2022-10-21T22:34:00.518Z,95435.38
2022-10-21T22:36:28.434Z,95433.38
2022-10-21T22:38:56.302Z,95424.06
2022-10-21T22:41:24.599Z,95432.56
2022-10-21T22:43:52.617Z,95437.00
2022-10-21T22:46:32.962Z,95415.50
2022-10-21T22:49:04.422Z,95420.81
2022-10-21T22:51:32.706Z,95414.94
2022-10-21T22:54:01.162Z,95374.56
2022-10-21T22:56:30.186Z,95385.03
2022-10-21T22:58:58.352Z,95401.22
2022-10-21T23:01:30.273Z,95413.50
2022-10-21T23:04:02.608Z,95432.13
2022-10-21T23:06:33.829Z,95448.09
2022-10-21T23:09:02.240Z,95441.81
2022-10-21T23:11:30.419Z,95461.66
2022-10-21T23:14:03.107Z,95443.78
2022-10-21T23:16:31.979Z,95463.22
2022-10-21T23:19:00.190Z,95465.28
2022-10-21T23:21:28.832Z,95496.31
2022-10-21T23:23:58.472Z,95479.03
2022-10-21T23:26:26.379Z,95492.06
2022-10-21T23:28:54.510Z,95499.75
2022-10-21T23:31:22.754Z,95497.31
2022-10-21T23:33:50.602Z,95494.69
2022-10-21T23:36:18.583Z,95495.69
2022-10-21T23:38:46.534Z,95487.19
2022-10-21T23:41:16.040Z,95491.16
2022-10-21T23:43:44.118Z,95514.31
2022-10-21T23:46:12.270Z,95537.16
2022-10-21T23:48:40.572Z,95537.78
2022-10-21T23:51:08.423Z,95538.16
2022-10-21T23:53:38.139Z,95562.03
2022-10-21T23:56:06.551Z,95537.91
2022-10-21T23:58:35.742Z,95534.28
